Time;durP1;ratioP1;P1;durP2;ratioP2;P2;SDS_P1;SDS_P2;PMS_P1;PMS_P2;Temp;Humidity;BMP_temperature;BMP_pressure;BME280_temperature;BME280_humidity;BME280_pressure;Samples;Min_cycle;Max_cycle;Signal;HPM_P1;HPM_P2
2023/12/27 04:01:22;;;;;;;1.00;0.60;;;24.50;32.90;;;;;;5578624;23;46483;-82
2023/12/27 04:03:48;;;;;;;0.93;0.53;;;24.50;32.90;;;;;;4998676;28;45191;-84
2023/12/27 04:06:20;;;;;;;1.53;0.43;;;24.50;32.80;;;;;;4979194;28;62377;-82
2023/12/27 04:08:46;;;;;;;0.47;0.45;;;24.50;32.90;;;;;;4992403;28;45861;-82
2023/12/27 04:11:12;;;;;;;1.52;0.57;;;24.50;32.90;;;;;;4962619;28;44819;-83
2023/12/27 04:13:38;;;;;;;0.70;0.50;;;24.50;32.80;;;;;;4977445;28;46861;-83
2023/12/27 04:16:04;;;;;;;0.90;0.50;;;24.50;33.40;;;;;;4951961;28;45861;-83
2023/12/27 04:18:30;;;;;;;1.17;0.60;;;24.50;32.80;;;;;;4992010;28;46133;-81
2023/12/27 04:20:56;;;;;;;0.85;0.50;;;24.50;32.80;;;;;;4984755;28;45451;-82
2023/12/27 04:23:22;;;;;;;0.90;0.50;;;24.50;32.80;;;;;;4971295;28;45153;-81
2023/12/27 04:25:48;;;;;;;0.82;0.50;;;24.50;32.80;;;;;;4967866;28;45695;-83
2023/12/27 04:28:13;;;;;;;1.67;0.50;;;24.50;32.80;;;;;;4943126;28;46092;-82
2023/12/27 04:30:39;;;;;;;1.10;0.70;;;24.50;32.80;;;;;;4955257;28;45628;-82
2023/12/27 04:33:05;;;;;;;1.37;0.60;;;24.50;32.80;;;;;;4976286;28;47784;-82
2023/12/27 04:35:31;;;;;;;1.40;0.57;;;24.50;32.80;;;;;;4973304;28;45372;-82
2023/12/27 04:37:57;;;;;;;1.48;0.60;;;24.40;32.70;;;;;;4993562;28;45546;-82
2023/12/27 04:40:22;;;;;;;0.97;0.60;;;24.40;32.70;;;;;;4964956;28;45785;-82
2023/12/27 04:42:48;;;;;;;0.87;0.57;;;24.40;32.70;;;;;;4976806;28;45458;-82
2023/12/27 04:45:14;;;;;;;1.88;0.47;;;24.40;32.70;;;;;;4964297;28;45143;-82
2023/12/27 04:47:41;;;;;;;0.90;0.50;;;24.40;32.70;;;;;;4975907;28;44911;-83
2023/12/27 04:50:08;;;;;;;0.73;0.55;;;24.50;32.80;;;;;;4989785;28;45450;-82
2023/12/27 04:52:34;;;;;;;0.60;0.50;;;24.40;32.70;;;;;;4987749;28;45436;-82
2023/12/27 04:55:00;;;;;;;1.80;0.50;;;24.40;32.70;;;;;;4979715;28;45667;-82
2023/12/27 04:57:26;;;;;;;1.47;0.60;;;24.40;32.70;;;;;;4951840;28;45744;-82
2023/12/27 04:59:52;;;;;;;0.80;0.50;;;24.40;32.70;;;;;;4976999;28;45363;-82
2023/12/27 05:02:17;;;;;;;0.70;0.50;;;24.40;32.70;;;;;;4976390;28;46368;-83
2023/12/27 05:04:43;;;;;;;1.10;0.60;;;24.40;32.70;;;;;;4995871;28;45470;-82
2023/12/27 05:07:09;;;;;;;0.60;0.50;;;24.40;32.70;;;;;;4985828;28;45273;-82
2023/12/27 05:09:35;;;;;;;0.60;0.50;;;24.40;32.70;;;;;;4962245;28;45018;-82
2023/12/27 05:12:01;;;;;;;0.70;0.40;;;24.40;32.70;;;;;;4988281;28;46416;-82
2023/12/27 05:14:27;;;;;;;1.60;0.55;;;24.40;32.70;;;;;;4980883;28;45213;-82
2023/12/27 05:16:55;;;;;;;0.97;0.60;;;24.40;32.70;;;;;;4981862;28;45528;-82
2023/12/27 05:19:21;;;;;;;1.10;0.50;;;24.40;32.70;;;;;;4994573;28;45666;-82
2023/12/27 05:21:46;;;;;;;1.02;0.40;;;24.40;32.70;;;;;;4967831;28;47469;-82
2023/12/27 05:24:12;;;;;;;1.00;0.50;;;24.40;32.60;;;;;;4974284;28;44710;-82
2023/12/27 05:26:39;;;;;;;1.55;0.77;;;24.40;32.60;;;;;;4988611;28;45409;-82
2023/12/27 05:29:05;;;;;;;0.52;0.50;;;24.30;32.60;;;;;;4996073;28;45136;-83
2023/12/27 05:31:30;;;;;;;1.23;0.70;;;24.40;32.60;;;;;;4984586;28;45490;-83
2023/12/27 05:33:58;;;;;;;1.33;0.53;;;24.30;32.60;;;;;;4991113;28;45575;-83
2023/12/27 05:36:23;;;;;;;0.88;0.60;;;24.40;32.60;;;;;;4971235;28;45524;-82
2023/12/27 05:38:49;;;;;;;0.73;0.50;;;24.30;32.60;;;;;;4974315;28;45637;-83
2023/12/27 05:41:17;;;;;;;1.73;0.50;;;24.30;32.60;;;;;;4988060;28;46327;-82
2023/12/27 05:43:44;;;;;;;0.95;0.70;;;24.30;32.60;;;;;;5008764;28;45408;-83
2023/12/27 05:46:09;;;;;;;0.93;0.60;;;24.30;32.60;;;;;;4967026;28;45461;-83
2023/12/27 05:48:35;;;;;;;0.97;0.57;;;24.30;32.50;;;;;;4982024;28;45788;-83
2023/12/27 05:51:01;;;;;;;0.93;0.52;;;24.30;32.50;;;;;;4986634;28;45799;-82
2023/12/27 05:53:28;;;;;;;0.60;0.45;;;24.30;32.60;;;;;;4965745;28;45386;-82
2023/12/27 05:55:54;;;;;;;0.80;0.60;;;24.30;32.50;;;;;;4982543;28;46171;-82
2023/12/27 05:58:20;;;;;;;0.90;0.50;;;24.30;32.50;;;;;;4979259;28;45428;-82
2023/12/27 06:00:46;;;;;;;1.08;0.55;;;24.30;32.50;;;;;;5001579;28;45589;-83
2023/12/27 06:03:11;;;;;;;1.20;0.60;;;24.30;32.50;;;;;;4988513;28;45682;-83
2023/12/27 06:05:37;;;;;;;0.60;0.40;;;24.30;32.50;;;;;;4974320;28;45764;-83
2023/12/27 06:08:03;;;;;;;0.60;0.40;;;24.30;32.50;;;;;;4962422;28;45323;-82
2023/12/27 06:10:30;;;;;;;0.65;0.40;;;24.20;32.50;;;;;;4969259;28;45931;-82
2023/12/27 06:12:56;;;;;;;1.00;0.47;;;24.20;32.50;;;;;;4994940;28;45778;-82
2023/12/27 06:15:22;;;;;;;0.90;0.50;;;24.20;32.50;;;;;;4985737;28;45222;-83
2023/12/27 06:17:48;;;;;;;0.70;0.50;;;24.20;32.50;;;;;;4956043;28;45248;-82
2023/12/27 06:20:14;;;;;;;1.38;0.60;;;24.20;32.40;;;;;;4975770;28;45503;-82
2023/12/27 06:22:40;;;;;;;1.00;0.60;;;24.20;32.40;;;;;;4987088;28;45256;-81
2023/12/27 06:25:06;;;;;;;0.70;0.55;;;24.20;32.50;;;;;;4961858;28;45376;-83
2023/12/27 06:27:32;;;;;;;1.02;0.50;;;24.20;33.00;;;;;;4943634;28;45646;-82
2023/12/27 06:29:58;;;;;;;2.15;0.50;;;24.20;32.40;;;;;;5011347;28;45739;-82
2023/12/27 06:32:24;;;;;;;1.40;0.52;;;24.10;32.40;;;;;;4983916;28;45253;-83
2023/12/27 06:34:50;;;;;;;0.57;0.50;;;24.10;32.40;;;;;;4980059;28;45344;-82
2023/12/27 06:37:16;;;;;;;1.08;0.60;;;24.10;32.40;;;;;;5004391;28;44931;-83
2023/12/27 06:39:42;;;;;;;1.52;0.50;;;24.10;32.30;;;;;;4974711;28;46302;-82
2023/12/27 06:42:08;;;;;;;1.40;0.57;;;24.10;32.40;;;;;;4939156;28;45468;-83
2023/12/27 06:44:34;;;;;;;1.30;0.60;;;24.10;32.40;;;;;;4959903;28;45704;-83
2023/12/27 06:46:59;;;;;;;0.63;0.40;;;24.10;32.40;;;;;;4981413;28;45333;-83
2023/12/27 06:49:25;;;;;;;2.03;0.40;;;24.10;32.40;;;;;;4991130;28;46333;-83
2023/12/27 06:51:51;;;;;;;0.90;0.50;;;24.10;32.40;;;;;;4961674;28;44972;-83
2023/12/27 06:54:16;;;;;;;1.70;0.50;;;24.10;32.40;;;;;;4992151;28;45574;-83
2023/12/27 06:56:42;;;;;;;0.77;0.40;;;24.10;32.40;;;;;;4964647;28;45513;-82
2023/12/27 06:59:08;;;;;;;0.82;0.47;;;24.10;32.40;;;;;;5011985;28;45362;-82
2023/12/27 07:01:34;;;;;;;0.80;0.55;;;24.10;32.40;;;;;;4948667;28;45627;-83
2023/12/27 07:04:02;;;;;;;1.27;0.53;;;24.10;32.40;;;;;;4974292;28;45780;-82
2023/12/27 07:06:28;;;;;;;1.20;0.60;;;24.10;32.40;;;;;;4989142;28;45640;-83
2023/12/27 07:08:54;;;;;;;2.25;0.80;;;24.10;32.40;;;;;;4993414;28;46262;-83
2023/12/27 07:11:20;;;;;;;0.50;0.50;;;24.00;32.40;;;;;;4987593;28;45244;-82
2023/12/27 07:13:46;;;;;;;1.13;0.70;;;24.10;32.40;;;;;;4966544;28;45294;-82
2023/12/27 07:16:35;;;;;;;0.87;0.63;;;24.10;32.40;;;;;;4969409;28;45133;-84
2023/12/27 07:19:01;;;;;;;0.95;0.63;;;24.00;32.40;;;;;;4988543;28;46451;-82
2023/12/27 07:21:26;;;;;;;1.10;0.60;;;24.00;32.40;;;;;;4971221;28;45555;-83
2023/12/27 07:23:52;;;;;;;1.43;0.70;;;24.00;32.40;;;;;;4973004;28;45709;-82
2023/12/27 07:26:18;;;;;;;1.25;0.73;;;24.00;32.40;;;;;;4975468;28;44844;-83
2023/12/27 07:28:45;;;;;;;4.30;1.00;;;24.00;32.40;;;;;;4977220;28;46235;-83
2023/12/27 07:31:10;;;;;;;1.50;1.00;;;24.00;32.40;;;;;;4984662;28;45521;-82
2023/12/27 07:33:39;;;;;;;2.80;1.20;;;24.00;32.40;;;;;;4955306;28;45622;-83
2023/12/27 07:36:06;;;;;;;3.13;1.60;;;24.00;32.40;;;;;;4986664;28;45354;-83
2023/12/27 07:38:32;;;;;;;5.65;1.75;;;24.00;32.40;;;;;;4993488;28;45097;-83
2023/12/27 07:40:58;;;;;;;5.73;2.40;;;24.00;32.40;;;;;;4988258;28;45170;-82
2023/12/27 07:43:25;;;;;;;7.38;2.70;;;24.00;32.40;;;;;;4958032;28;45883;-82
2023/12/27 07:45:50;;;;;;;6.90;2.97;;;24.00;32.40;;;;;;4972591;28;45282;-83
2023/12/27 07:48:16;;;;;;;6.67;2.90;;;24.00;32.40;;;;;;4974095;28;46042;-82
2023/12/27 07:50:42;;;;;;;6.97;3.10;;;23.90;32.30;;;;;;4973099;28;45177;-83
2023/12/27 07:53:08;;;;;;;6.05;3.30;;;24.00;32.40;;;;;;4989784;28;45075;-83
2023/12/27 07:55:34;;;;;;;7.80;3.28;;;23.90;32.30;;;;;;4955227;28;45581;-82
2023/12/27 07:58:00;;;;;;;9.18;3.65;;;23.90;32.40;;;;;;4968480;28;46862;-83
2023/12/27 08:00:26;;;;;;;8.15;3.45;;;23.90;32.30;;;;;;4953123;28;45239;-83
2023/12/27 08:02:53;;;;;;;8.27;3.85;;;23.90;32.30;;;;;;4975568;28;45200;-82
2023/12/27 08:05:19;;;;;;;8.75;3.70;;;23.90;32.30;;;;;;4989298;28;46271;-83
2023/12/27 08:07:46;;;;;;;8.60;3.50;;;23.90;32.30;;;;;;5012788;28;45319;-82
2023/12/27 08:10:11;;;;;;;7.60;3.50;;;23.90;32.30;;;;;;5006840;28;45217;-84
2023/12/27 08:12:37;;;;;;;7.23;3.60;;;23.80;32.30;;;;;;4977082;28;45647;-82
2023/12/27 08:15:03;;;;;;;9.18;3.47;;;23.90;32.40;;;;;;4961274;28;45638;-83
2023/12/27 08:17:29;;;;;;;7.70;3.60;;;23.90;32.30;;;;;;4948526;28;46596;-82
2023/12/27 08:19:56;;;;;;;8.65;3.50;;;23.90;32.30;;;;;;4971805;28;45102;-82
2023/12/27 08:22:22;;;;;;;7.80;3.58;;;23.90;32.30;;;;;;4989116;28;45730;-83
2023/12/27 08:24:47;;;;;;;7.70;3.40;;;23.90;32.40;;;;;;4970368;28;45171;-82
2023/12/27 08:27:13;;;;;;;7.95;3.40;;;23.80;32.30;;;;;;4987479;28;45540;-83
2023/12/27 08:29:41;;;;;;;8.50;3.50;;;23.80;32.40;;;;;;5005551;28;45698;-83
2023/12/27 08:32:07;;;;;;;8.85;3.53;;;23.80;32.30;;;;;;4947848;28;45482;-82
2023/12/27 08:34:34;;;;;;;9.13;3.50;;;23.80;32.30;;;;;;4987555;28;45735;-82
2023/12/27 08:37:00;;;;;;;8.13;3.70;;;23.80;32.40;;;;;;4971956;28;46392;-82
2023/12/27 08:39:27;;;;;;;7.03;3.30;;;23.80;32.30;;;;;;4971387;28;45389;-82
2023/12/27 08:41:54;;;;;;;7.37;3.33;;;23.80;32.30;;;;;;4987849;28;45661;-83
2023/12/27 08:44:20;;;;;;;7.35;3.38;;;23.80;32.40;;;;;;4988829;28;45523;-83
2023/12/27 08:46:46;;;;;;;6.23;3.23;;;23.80;32.30;;;;;;4950681;28;46308;-83
2023/12/27 08:49:11;;;;;;;9.27;3.42;;;23.70;32.30;;;;;;4990985;28;45080;-83
2023/12/27 08:51:37;;;;;;;8.40;3.17;;;23.80;32.40;;;;;;4985329;28;45291;-83
2023/12/27 08:54:03;;;;;;;7.25;3.42;;;23.70;32.30;;;;;;4975077;28;45006;-83
2023/12/27 08:56:29;;;;;;;6.37;2.70;;;23.80;32.40;;;;;;4982370;28;48193;-83
2023/12/27 08:58:56;;;;;;;7.32;3.35;;;23.80;32.40;;;;;;4959620;28;45162;-82
2023/12/27 09:01:21;;;;;;;6.63;3.05;;;23.70;32.30;;;;;;4964267;28;45233;-81
2023/12/27 09:03:48;;;;;;;7.85;3.30;;;23.80;32.40;;;;;;4976599;28;45727;-82
2023/12/27 09:06:14;;;;;;;5.22;2.88;;;23.70;32.40;;;;;;4986450;28;45325;-82
2023/12/27 09:08:41;;;;;;;6.78;3.03;;;23.70;32.40;;;;;;4990889;28;45385;-82
2023/12/27 09:11:07;;;;;;;6.57;3.08;;;23.70;32.40;;;;;;5001753;28;45698;-83
2023/12/27 09:13:32;;;;;;;7.03;3.03;;;23.70;32.40;;;;;;4993382;28;45020;-82
2023/12/27 09:15:58;;;;;;;5.38;2.75;;;23.70;32.50;;;;;;4968754;28;46009;-81
2023/12/27 09:18:25;;;;;;;6.57;2.70;;;23.70;32.40;;;;;;4992798;28;45390;-82
2023/12/27 09:20:50;;;;;;;4.45;2.60;;;23.70;32.40;;;;;;4969368;28;45646;-83
2023/12/27 09:23:17;;;;;;;5.53;2.70;;;23.70;32.40;;;;;;4958037;28;45752;-82
2023/12/27 09:25:43;;;;;;;6.17;2.90;;;23.70;32.40;;;;;;4984281;28;48153;-82
2023/12/27 09:28:09;;;;;;;5.10;2.53;;;23.70;32.50;;;;;;4973216;28;45743;-83
2023/12/27 09:30:35;;;;;;;6.25;2.85;;;23.70;33.10;;;;;;4997011;28;45853;-83
2023/12/27 09:33:01;;;;;;;6.20;2.80;;;23.70;32.50;;;;;;4972793;28;45308;-83
2023/12/27 09:35:27;;;;;;;5.75;2.58;;;23.70;32.50;;;;;;4953429;28;46213;-82
2023/12/27 09:37:53;;;;;;;5.13;2.73;;;23.70;32.50;;;;;;4975960;28;45332;-82
2023/12/27 09:40:19;;;;;;;4.90;2.70;;;23.60;32.50;;;;;;4975192;28;45331;-82
2023/12/27 09:42:45;;;;;;;3.90;2.22;;;23.60;32.50;;;;;;4955312;28;46338;-82
2023/12/27 09:45:14;;;;;;;4.40;2.40;;;23.60;32.50;;;;;;4966673;28;46020;-82
2023/12/27 09:47:40;;;;;;;5.53;2.53;;;23.70;32.50;;;;;;4990011;28;44975;-83
2023/12/27 09:50:06;;;;;;;3.65;2.10;;;23.60;32.50;;;;;;4989134;28;45510;-82
2023/12/27 09:52:33;;;;;;;4.45;2.33;;;23.60;32.50;;;;;;4969131;28;45282;-83
2023/12/27 09:54:59;;;;;;;5.50;2.95;;;23.60;32.50;;;;;;4979558;28;47132;-82
2023/12/27 09:57:25;;;;;;;4.57;2.50;;;23.60;32.50;;;;;;4970440;28;45733;-82
2023/12/27 09:59:51;;;;;;;5.00;2.47;;;23.60;32.50;;;;;;4973214;28;47982;-82
2023/12/27 10:02:20;;;;;;;4.38;2.22;;;23.60;32.50;;;;;;4931826;28;44848;-83
2023/12/27 10:05:07;;;;;;;4.72;2.65;;;23.60;32.60;;;;;;4992326;28;46462;-82
2023/12/27 10:07:38;;;;;;;4.43;2.40;;;23.60;32.60;;;;;;4979761;28;45146;-82
2023/12/27 10:10:06;;;;;;;3.90;2.30;;;23.60;32.60;;;;;;4986079;28;45353;-83
2023/12/27 10:12:31;;;;;;;3.78;2.20;;;23.60;32.60;;;;;;4973284;28;45554;-82
2023/12/27 10:14:57;;;;;;;3.47;2.30;;;23.50;32.60;;;;;;4974881;28;47335;-83
2023/12/27 10:17:23;;;;;;;3.17;1.83;;;23.60;32.60;;;;;;4966605;28;45537;-82
2023/12/27 10:19:50;;;;;;;2.83;1.90;;;23.60;32.60;;;;;;4971578;28;44810;-83
2023/12/27 10:22:15;;;;;;;3.83;2.10;;;23.60;32.70;;;;;;4981840;28;45767;-82
2023/12/27 10:24:42;;;;;;;3.58;1.83;;;23.60;32.70;;;;;;4985300;28;45378;-82
2023/12/27 10:27:08;;;;;;;3.77;2.00;;;23.50;32.60;;;;;;4967618;28;45510;-83
2023/12/27 10:29:34;;;;;;;3.87;1.97;;;23.50;32.70;;;;;;4976484;28;46233;-83
2023/12/27 10:32:01;;;;;;;3.38;1.90;;;23.50;32.70;;;;;;4965806;28;45259;-83
2023/12/27 10:34:27;;;;;;;2.53;1.75;;;23.50;32.70;;;;;;4961113;28;46331;-83
2023/12/27 10:36:54;;;;;;;3.15;1.70;;;23.60;32.80;;;;;;4966579;28;45400;-81
2023/12/27 10:39:20;;;;;;;3.50;1.75;;;23.50;32.70;;;;;;4988815;28;45328;-83
2023/12/27 10:41:46;;;;;;;3.22;1.77;;;23.50;32.70;;;;;;4962753;28;45190;-83
2023/12/27 10:44:17;;;;;;;2.80;1.70;;;23.50;32.80;;;;;;4975720;28;47042;-83
2023/12/27 10:46:43;;;;;;;2.42;1.55;;;23.50;32.80;;;;;;4960681;28;45707;-83
2023/12/27 10:49:09;;;;;;;2.63;1.60;;;23.50;32.80;;;;;;4978520;28;45467;-83
2023/12/27 10:51:38;;;;;;;3.00;1.58;;;23.50;32.80;;;;;;4974051;28;45312;-83
2023/12/27 10:54:04;;;;;;;2.67;1.43;;;23.50;32.90;;;;;;4954736;28;46086;-82
2023/12/27 10:56:54;;;;;;;3.72;1.65;;;23.50;32.90;;;;;;4987193;28;45373;-82
2023/12/27 10:59:20;;;;;;;2.17;1.50;;;23.50;32.90;;;;;;4974117;28;45450;-82
2023/12/27 11:01:46;;;;;;;3.10;1.45;;;23.50;32.90;;;;;;4979206;28;45024;-82
2023/12/27 11:04:11;;;;;;;1.80;1.20;;;23.50;32.90;;;;;;4970530;28;46332;-82
2023/12/27 11:06:40;;;;;;;2.90;1.37;;;23.50;32.90;;;;;;4973690;28;45558;-83
2023/12/27 11:09:07;;;;;;;2.22;1.23;;;23.50;33.10;;;;;;4958170;28;45326;-82
2023/12/27 11:11:39;;;;;;;2.08;1.33;;;23.50;33.00;;;;;;4988070;28;45314;-83
2023/12/27 11:14:11;;;;;;;2.67;1.20;;;23.50;33.10;;;;;;4956791;28;47234;-82
2023/12/27 11:16:39;;;;;;;2.13;1.27;;;23.50;33.10;;;;;;4967812;28;45868;-83
2023/12/27 11:19:06;;;;;;;2.05;1.20;;;23.50;33.10;;;;;;4961461;28;44970;-83
2023/12/27 11:21:32;;;;;;;2.07;1.20;;;23.50;33.10;;;;;;4965846;28;45561;-82
2023/12/27 11:23:58;;;;;;;2.67;1.40;;;23.50;33.10;;;;;;4969816;28;48214;-82
2023/12/27 11:26:24;;;;;;;2.03;1.27;;;23.50;33.10;;;;;;4967956;28;44989;-82
2023/12/27 11:28:50;;;;;;;1.70;1.13;;;23.50;33.10;;;;;;4958696;28;45813;-82
2023/12/27 11:31:16;;;;;;;2.08;1.15;;;23.50;33.20;;;;;;4960103;28;45948;-82
2023/12/27 11:33:47;;;;;;;1.97;1.30;;;23.50;33.20;;;;;;4984623;28;45880;-82
2023/12/27 11:36:13;;;;;;;1.42;1.00;;;23.50;33.20;;;;;;4968017;28;45211;-82
2023/12/27 11:38:40;;;;;;;1.67;1.30;;;23.40;33.20;;;;;;4984025;28;45561;-82
2023/12/27 11:41:06;;;;;;;2.38;1.17;;;23.40;33.20;;;;;;4949903;28;45962;-83
2023/12/27 11:43:56;;;;;;;1.40;1.05;;;23.50;33.30;;;;;;4974563;28;45628;-82
2023/12/27 11:46:30;;;;;;;1.60;1.00;;;23.40;33.20;;;;;;4967162;28;44903;-82
2023/12/27 11:48:58;;;;;;;1.93;1.03;;;23.40;33.30;;;;;;4955598;28;45524;-82
2023/12/27 11:51:35;;;;;;;1.63;1.00;;;23.40;33.30;;;;;;4986302;28;45274;-82
2023/12/27 11:54:02;;;;;;;1.85;1.10;;;23.40;33.30;;;;;;4969102;28;46196;-82
2023/12/27 11:56:35;;;;;;;1.98;1.15;;;23.40;33.30;;;;;;4984747;28;44711;-82
2023/12/27 11:59:01;;;;;;;1.92;1.00;;;23.40;33.30;;;;;;4989193;28;45852;-82
2023/12/27 12:01:35;;;;;;;1.63;1.00;;;23.40;33.30;;;;;;4968201;28;45571;-82
2023/12/27 12:04:07;;;;;;;1.90;1.10;;;23.40;33.40;;;;;;4965309;28;45591;-82
2023/12/27 12:06:44;;;;;;;1.30;0.90;;;23.40;33.40;;;;;;4980087;28;45838;-87
2023/12/27 12:09:10;;;;;;;1.02;0.90;;;23.40;33.40;;;;;;5000975;28;45558;-81
2023/12/27 12:11:36;;;;;;;1.45;0.90;;;23.40;33.50;;;;;;4979506;28;45847;-82
2023/12/27 12:14:02;;;;;;;1.83;0.90;;;23.40;33.40;;;;;;4979277;28;45896;-82
2023/12/27 12:16:31;;;;;;;1.80;1.00;;;23.40;33.50;;;;;;4946778;28;45662;-82
2023/12/27 12:18:58;;;;;;;1.70;1.00;;;23.40;33.50;;;;;;4951690;28;45525;-83
2023/12/27 12:21:24;;;;;;;1.35;0.80;;;23.40;33.50;;;;;;4964125;28;45086;-82
2023/12/27 12:23:50;;;;;;;1.20;0.80;;;23.40;34.00;;;;;;4966379;28;47720;-82
2023/12/27 12:26:17;;;;;;;1.00;0.80;;;23.30;33.50;;;;;;4978281;28;45961;-82
2023/12/27 12:28:52;;;;;;;1.30;1.00;;;23.30;33.50;;;;;;4970861;28;45388;-82
2023/12/27 12:31:18;;;;;;;1.45;0.88;;;23.40;33.60;;;;;;4959946;28;45169;-82
2023/12/27 12:33:44;;;;;;;2.15;1.10;;;23.30;33.60;;;;;;4980975;28;45393;-82
2023/12/27 12:36:09;;;;;;;0.93;0.70;;;23.30;33.60;;;;;;4964252;28;45322;-82
2023/12/27 12:38:35;;;;;;;1.42;0.95;;;23.30;33.60;;;;;;4962878;28;44919;-82
2023/12/27 12:41:01;;;;;;;1.13;0.87;;;23.30;33.60;;;;;;4964309;28;44947;-81
2023/12/27 12:43:27;;;;;;;1.40;0.90;;;23.30;33.70;;;;;;4960125;28;45325;-82
2023/12/27 12:45:52;;;;;;;1.45;0.82;;;23.30;33.70;;;;;;4966983;28;45640;-82
2023/12/27 12:48:18;;;;;;;1.45;0.88;;;23.30;33.70;;;;;;4949494;28;45608;-82
2023/12/27 12:50:44;;;;;;;1.88;0.70;;;23.40;33.70;;;;;;4958878;28;45542;-82
2023/12/27 12:53:14;;;;;;;1.70;0.70;;;23.30;33.80;;;;;;4972158;28;48103;-82
2023/12/27 12:55:42;;;;;;;1.30;0.82;;;23.30;33.70;;;;;;4977418;28;46265;-82
2023/12/27 12:58:08;;;;;;;1.00;0.75;;;23.30;33.80;;;;;;4953030;28;45221;-82
2023/12/27 13:00:34;;;;;;;1.02;0.80;;;23.30;33.80;;;;;;4936532;28;45396;-81
2023/12/27 13:03:00;;;;;;;1.42;0.70;;;23.30;33.80;;;;;;4955973;28;45923;-82
2023/12/27 13:05:27;;;;;;;2.83;0.95;;;23.30;33.80;;;;;;4954432;28;45750;-82
2023/12/27 13:07:53;;;;;;;1.23;0.80;;;23.30;33.80;;;;;;4966339;28;45808;-82
2023/12/27 13:10:19;;;;;;;0.90;0.80;;;23.30;33.90;;;;;;4948624;28;45280;-82
2023/12/27 13:12:45;;;;;;;1.02;0.75;;;23.30;33.90;;;;;;4967882;28;46461;-81
2023/12/27 13:15:11;;;;;;;0.93;0.70;;;23.30;33.90;;;;;;4977864;28;45675;-82
2023/12/27 13:17:37;;;;;;;0.80;0.80;;;23.30;33.90;;;;;;4959066;28;45430;-83
2023/12/27 13:20:04;;;;;;;1.38;0.73;;;23.30;33.90;;;;;;4981039;28;45458;-82
2023/12/27 13:22:30;;;;;;;0.95;0.70;;;23.20;33.90;;;;;;4968536;28;46257;-82
2023/12/27 13:24:57;;;;;;;1.40;0.68;;;23.20;33.90;;;;;;4986318;28;45364;-82
2023/12/27 13:27:22;;;;;;;1.17;0.80;;;23.20;33.90;;;;;;4997997;28;45684;-82
2023/12/27 13:29:48;;;;;;;1.00;0.70;;;23.30;34.00;;;;;;4983269;28;44950;-82
2023/12/27 13:32:14;;;;;;;1.55;0.80;;;23.20;33.90;;;;;;4976693;28;46431;-82
2023/12/27 13:34:40;;;;;;;1.27;0.70;;;23.30;34.00;;;;;;4964450;28;45608;-84
2023/12/27 13:37:05;;;;;;;1.00;0.60;;;23.20;34.00;;;;;;4973780;28;45510;-82
2023/12/27 13:39:31;;;;;;;1.23;0.73;;;23.30;34.10;;;;;;5005302;28;45306;-82
2023/12/27 13:41:57;;;;;;;1.70;0.87;;;23.20;34.10;;;;;;4950131;28;45307;-82
2023/12/27 13:44:23;;;;;;;1.20;0.60;;;23.30;34.10;;;;;;4991277;28;44876;-82
2023/12/27 13:46:49;;;;;;;1.08;0.80;;;23.20;34.00;;;;;;4965516;28;45257;-82
2023/12/27 13:49:16;;;;;;;1.13;0.70;;;23.20;34.00;;;;;;4970478;28;45553;-82
2023/12/27 13:51:42;;;;;;;0.90;0.60;;;23.20;34.10;;;;;;4983716;28;46461;-82
2023/12/27 13:54:08;;;;;;;1.17;0.70;;;23.20;34.10;;;;;;4973323;28;45811;-82
2023/12/27 13:56:35;;;;;;;0.95;0.68;;;23.20;34.10;;;;;;4988892;28;45395;-82
2023/12/27 13:59:02;;;;;;;0.97;0.60;;;23.20;34.10;;;;;;4970322;28;45529;-82
2023/12/27 14:01:29;;;;;;;1.02;0.75;;;23.20;34.10;;;;;;4946297;28;46558;-82
2023/12/27 14:03:55;;;;;;;1.30;0.70;;;23.20;34.20;;;;;;4972567;28;45492;-82
2023/12/27 14:06:22;;;;;;;1.00;0.80;;;23.20;34.10;;;;;;4968951;28;45801;-82
2023/12/27 14:08:47;;;;;;;1.70;0.60;;;23.20;34.20;;;;;;4993983;28;45624;-82
2023/12/27 14:11:13;;;;;;;0.70;0.50;;;23.20;34.20;;;;;;4975794;28;45389;-82
2023/12/27 14:13:40;;;;;;;0.80;0.57;;;23.10;34.10;;;;;;4984127;28;45513;-82
2023/12/27 14:16:06;;;;;;;1.07;0.73;;;23.20;34.30;;;;;;4969318;28;45472;-82
2023/12/27 14:18:31;;;;;;;1.40;0.90;;;23.20;34.20;;;;;;4992335;28;45574;-82
2023/12/27 14:20:57;;;;;;;1.07;0.60;;;23.20;34.20;;;;;;4969499;28;46416;-82
2023/12/27 14:23:23;;;;;;;1.40;0.70;;;23.20;34.30;;;;;;4976323;28;45661;-84
2023/12/27 14:25:48;;;;;;;0.80;0.60;;;23.20;34.30;;;;;;4968998;28;45158;-82
2023/12/27 14:28:15;;;;;;;1.83;0.80;;;23.20;34.30;;;;;;4955747;28;46634;-82
2023/12/27 14:30:41;;;;;;;1.30;0.70;;;23.10;34.20;;;;;;4999492;28;45565;-82
2023/12/27 14:33:08;;;;;;;1.35;0.77;;;23.10;34.20;;;;;;4968195;28;45187;-82
2023/12/27 14:35:35;;;;;;;1.30;0.80;;;23.20;34.30;;;;;;4954750;28;44847;-82
2023/12/27 14:38:01;;;;;;;1.20;0.70;;;23.10;34.30;;;;;;4968945;28;45041;-84
2023/12/27 14:40:29;;;;;;;1.10;0.70;;;23.10;34.30;;;;;;4986615;28;46408;-82
2023/12/27 14:42:56;;;;;;;1.17;0.65;;;23.10;34.30;;;;;;4952925;28;45817;-82
2023/12/27 14:45:21;;;;;;;1.20;0.70;;;23.10;34.30;;;;;;4957919;28;45365;-84
2023/12/27 14:47:47;;;;;;;1.35;0.80;;;23.10;34.30;;;;;;4946214;28;45456;-83
2023/12/27 14:50:13;;;;;;;1.00;0.73;;;23.10;34.30;;;;;;4954806;28;45578;-81
2023/12/27 14:52:39;;;;;;;0.90;0.60;;;23.10;35.00;;;;;;4955544;28;45594;-83
2023/12/27 14:55:10;;;;;;;1.87;0.80;;;23.10;34.40;;;;;;4958471;28;45144;-83
2023/12/27 14:57:35;;;;;;;1.33;0.90;;;23.10;34.40;;;;;;4976204;28;45218;-83
2023/12/27 15:00:03;;;;;;;1.20;0.70;;;23.10;34.40;;;;;;4985958;28;46545;-81
2023/12/27 15:02:29;;;;;;;1.50;0.90;;;23.10;34.40;;;;;;4980884;28;45548;-83
2023/12/27 15:04:56;;;;;;;1.27;0.82;;;23.10;34.50;;;;;;4989978;28;45473;-82
2023/12/27 15:07:21;;;;;;;1.98;0.80;;;23.10;34.50;;;;;;4969726;28;45353;-83
2023/12/27 15:09:47;;;;;;;0.90;0.80;;;23.10;34.50;;;;;;4980056;28;46692;-82
2023/12/27 15:12:14;;;;;;;1.27;1.05;;;23.10;34.60;;;;;;4969819;28;45173;-83
2023/12/27 15:14:39;;;;;;;1.20;0.90;;;23.10;34.50;;;;;;4981001;28;45242;-82
2023/12/27 15:17:06;;;;;;;2.10;0.93;;;23.10;34.50;;;;;;4966731;28;45569;-83
2023/12/27 15:19:32;;;;;;;1.00;0.80;;;23.10;34.60;;;;;;4988841;28;45392;-83
2023/12/27 15:21:57;;;;;;;1.40;1.10;;;23.10;34.60;;;;;;4958502;28;45640;-82
2023/12/27 15:24:24;;;;;;;1.83;1.00;;;23.10;34.60;;;;;;4974544;28;45641;-82
2023/12/27 15:26:50;;;;;;;1.73;1.13;;;23.10;34.60;;;;;;4987450;28;44952;-82
2023/12/27 15:29:16;;;;;;;1.50;1.10;;;23.10;34.60;;;;;;4970322;28;46674;-82
2023/12/27 15:31:43;;;;;;;1.80;1.10;;;23.10;34.60;;;;;;4977368;28;45661;-82
2023/12/27 15:34:10;;;;;;;1.88;1.10;;;23.10;34.60;;;;;;4995196;28;45728;-82
2023/12/27 15:36:38;;;;;;;1.40;1.10;;;23.20;34.70;;;;;;4984635;28;45406;-83
2023/12/27 15:39:04;;;;;;;2.50;1.20;;;23.20;34.60;;;;;;4957032;28;46956;-82
2023/12/27 15:41:30;;;;;;;2.43;1.10;;;23.20;34.60;;;;;;4981571;28;46005;-82
2023/12/27 15:44:02;;;;;;;1.83;1.30;;;23.20;34.60;;;;;;4952876;28;45555;-83
2023/12/27 15:46:29;;;;;;;1.88;1.00;;;23.20;34.60;;;;;;4967020;28;45490;-83
2023/12/27 15:48:55;;;;;;;1.60;1.10;;;23.30;34.70;;;;;;4972831;28;45875;-82
2023/12/27 15:51:28;;;;;;;1.85;1.10;;;23.20;34.60;;;;;;4941448;28;46291;-82
2023/12/27 15:53:55;;;;;;;2.03;1.37;;;23.20;34.60;;;;;;4972656;28;46131;-83
2023/12/27 15:56:32;;;;;;;1.52;1.30;;;23.30;34.60;;;;;;4970288;28;45627;-83
2023/12/27 15:58:58;;;;;;;1.88;1.20;;;23.30;34.60;;;;;;4986770;28;46234;-83
2023/12/27 16:01:28;;;;;;;1.73;1.10;;;23.30;34.60;;;;;;4981144;28;45242;-83
2023/12/27 16:03:54;;;;;;;1.88;1.30;;;23.30;34.60;;;;;;4939604;28;45379;-82
2023/12/27 16:06:27;;;;;;;2.10;1.40;;;23.30;34.50;;;;;;4968390;28;44894;-83
2023/12/27 16:08:53;;;;;;;2.70;1.58;;;23.40;34.50;;;;;;4972011;28;47349;-83
2023/12/27 16:11:19;;;;;;;1.50;1.30;;;23.40;34.50;;;;;;4967963;28;45895;-83
2023/12/27 16:13:45;;;;;;;2.30;1.42;;;23.40;34.50;;;;;;4986716;28;45580;-82
2023/12/27 16:16:11;;;;;;;1.90;1.20;;;23.40;34.50;;;;;;4947979;28;45007;-83
2023/12/27 16:18:36;;;;;;;1.50;1.30;;;23.50;34.50;;;;;;4975700;28;48034;-84
2023/12/27 16:21:04;;;;;;;2.20;1.20;;;23.40;34.40;;;;;;4975854;28;45530;-82
2023/12/27 16:23:30;;;;;;;1.90;1.40;;;23.50;34.50;;;;;;4987843;28;44961;-83
2023/12/27 16:25:56;;;;;;;2.17;1.60;;;23.50;34.40;;;;;;4948075;28;45747;-86
2023/12/27 16:28:22;;;;;;;1.98;1.40;;;23.50;34.40;;;;;;4986161;28;45232;-83
2023/12/27 16:30:52;;;;;;;1.60;1.23;;;23.50;34.40;;;;;;4940039;28;44941;-83
2023/12/27 16:33:18;;;;;;;2.10;1.38;;;23.50;35.00;;;;;;4980488;28;47181;-83
2023/12/27 16:35:43;;;;;;;1.52;1.20;;;23.60;34.30;;;;;;4949565;28;45220;-82
2023/12/27 16:38:09;;;;;;;2.22;1.45;;;23.60;34.30;;;;;;4976178;28;46795;-83
2023/12/27 16:40:36;;;;;;;3.15;1.38;;;23.60;34.20;;;;;;4998984;28;45351;-82
2023/12/27 16:43:01;;;;;;;2.10;1.33;;;23.60;34.20;;;;;;4968418;28;45406;-83
2023/12/27 16:45:27;;;;;;;1.77;1.37;;;23.60;34.20;;;;;;4978481;28;45713;-83